sensor_id;sensor_type;location;lat;lon;timestamp;P1;durP1;ratioP1;P2;durP2;ratioP2
48703;SDS011;34502;51.296;16.918;2022-11-30T00:00:39;114.80;;;60.35;;
48703;SDS011;34502;51.296;16.918;2022-11-30T00:03:05;114.20;;;62.22;;
48703;SDS011;34502;51.296;16.918;2022-11-30T00:05:32;116.63;;;64.57;;
48703;SDS011;34502;51.296;16.918;2022-11-30T00:07:59;111.60;;;61.47;;
48703;SDS011;34502;51.296;16.918;2022-11-30T00:10:25;118.20;;;65.80;;
48703;SDS011;34502;51.296;16.918;2022-11-30T00:12:52;105.63;;;60.03;;
48703;SDS011;34502;51.296;16.918;2022-11-30T00:15:18;101.82;;;60.83;;
48703;SDS011;34502;51.296;16.918;2022-11-30T00:17:45;108.95;;;63.38;;
48703;SDS011;34502;51.296;16.918;2022-11-30T00:20:12;118.00;;;62.00;;
48703;SDS011;34502;51.296;16.918;2022-11-30T00:22:39;103.07;;;60.33;;
48703;SDS011;34502;51.296;16.918;2022-11-30T00:25:06;115.28;;;62.00;;
48703;SDS011;34502;51.296;16.918;2022-11-30T00:27:32;108.45;;;61.05;;
48703;SDS011;34502;51.296;16.918;2022-11-30T00:29:59;105.38;;;59.55;;
48703;SDS011;34502;51.296;16.918;2022-11-30T00:32:26;104.25;;;57.65;;
48703;SDS011;34502;51.296;16.918;2022-11-30T00:34:52;110.35;;;61.42;;
48703;SDS011;34502;51.296;16.918;2022-11-30T00:37:37;113.68;;;61.22;;
48703;SDS011;34502;51.296;16.918;2022-11-30T00:40:04;115.93;;;60.22;;
48703;SDS011;34502;51.296;16.918;2022-11-30T00:42:31;113.60;;;63.13;;
48703;SDS011;34502;51.296;16.918;2022-11-30T00:44:57;109.50;;;60.75;;
48703;SDS011;34502;51.296;16.918;2022-11-30T00:47:23;112.22;;;62.30;;
48703;SDS011;34502;51.296;16.918;2022-11-30T00:49:49;109.35;;;59.03;;
48703;SDS011;34502;51.296;16.918;2022-11-30T00:52:15;118.03;;;61.83;;
48703;SDS011;34502;51.296;16.918;2022-11-30T00:54:41;107.82;;;61.38;;
48703;SDS011;34502;51.296;16.918;2022-11-30T00:57:07;115.60;;;61.53;;
48703;SDS011;34502;51.296;16.918;2022-11-30T00:59:33;108.53;;;60.10;;
48703;SDS011;34502;51.296;16.918;2022-11-30T01:01:59;104.45;;;61.38;;
48703;SDS011;34502;51.296;16.918;2022-11-30T01:04:25;109.68;;;59.58;;
48703;SDS011;34502;51.296;16.918;2022-11-30T01:06:51;113.93;;;62.70;;
48703;SDS011;34502;51.296;16.918;2022-11-30T01:09:17;121.07;;;61.80;;
48703;SDS011;34502;51.296;16.918;2022-11-30T01:11:43;114.00;;;61.75;;
48703;SDS011;34502;51.296;16.918;2022-11-30T01:14:10;108.45;;;58.50;;
48703;SDS011;34502;51.296;16.918;2022-11-30T01:16:36;109.97;;;58.90;;
48703;SDS011;34502;51.296;16.918;2022-11-30T01:19:02;114.78;;;59.20;;
48703;SDS011;34502;51.296;16.918;2022-11-30T01:21:28;120.00;;;61.85;;
48703;SDS011;34502;51.296;16.918;2022-11-30T01:23:54;107.45;;;57.47;;
48703;SDS011;34502;51.296;16.918;2022-11-30T01:26:20;116.03;;;60.88;;
48703;SDS011;34502;51.296;16.918;2022-11-30T01:28:51;114.03;;;59.80;;
48703;SDS011;34502;51.296;16.918;2022-11-30T01:31:19;116.07;;;61.17;;
48703;SDS011;34502;51.296;16.918;2022-11-30T01:33:48;113.00;;;60.28;;
48703;SDS011;34502;51.296;16.918;2022-11-30T01:36:17;109.53;;;59.33;;
48703;SDS011;34502;51.296;16.918;2022-11-30T01:38:50;118.95;;;61.75;;
48703;SDS011;34502;51.296;16.918;2022-11-30T01:41:18;108.78;;;57.88;;
48703;SDS011;34502;51.296;16.918;2022-11-30T01:43:47;111.65;;;58.95;;
48703;SDS011;34502;51.296;16.918;2022-11-30T01:48:44;111.85;;;58.92;;
48703;SDS011;34502;51.296;16.918;2022-11-30T01:51:11;116.82;;;60.90;;
48703;SDS011;34502;51.296;16.918;2022-11-30T01:53:37;120.93;;;62.65;;
48703;SDS011;34502;51.296;16.918;2022-11-30T01:56:04;120.75;;;62.30;;
48703;SDS011;34502;51.296;16.918;2022-11-30T01:58:31;122.15;;;60.40;;
48703;SDS011;34502;51.296;16.918;2022-11-30T02:00:58;123.75;;;64.60;;
48703;SDS011;34502;51.296;16.918;2022-11-30T02:05:53;119.38;;;59.00;;
48703;SDS011;34502;51.296;16.918;2022-11-30T02:08:19;127.75;;;63.67;;
48703;SDS011;34502;51.296;16.918;2022-11-30T02:10:51;128.02;;;62.38;;
48703;SDS011;34502;51.296;16.918;2022-11-30T02:16:34;123.80;;;64.32;;
48703;SDS011;34502;51.296;16.918;2022-11-30T02:22:03;136.88;;;65.60;;
48703;SDS011;34502;51.296;16.918;2022-11-30T02:30:45;140.48;;;66.85;;
48703;SDS011;34502;51.296;16.918;2022-11-30T02:33:14;139.88;;;66.47;;
48703;SDS011;34502;51.296;16.918;2022-11-30T02:35:46;146.65;;;70.20;;
48703;SDS011;34502;51.296;16.918;2022-11-30T02:38:14;143.10;;;66.22;;
48703;SDS011;34502;51.296;16.918;2022-11-30T02:40:47;149.55;;;68.18;;
48703;SDS011;34502;51.296;16.918;2022-11-30T02:43:13;142.13;;;66.22;;
48703;SDS011;34502;51.296;16.918;2022-11-30T02:48:24;145.18;;;66.63;;
48703;SDS011;34502;51.296;16.918;2022-11-30T02:51:11;141.40;;;66.38;;
48703;SDS011;34502;51.296;16.918;2022-11-30T02:53:41;148.90;;;67.05;;
48703;SDS011;34502;51.296;16.918;2022-11-30T02:56:08;144.80;;;66.57;;
48703;SDS011;34502;51.296;16.918;2022-11-30T02:58:34;136.07;;;65.75;;
48703;SDS011;34502;51.296;16.918;2022-11-30T03:01:00;142.90;;;64.07;;
48703;SDS011;34502;51.296;16.918;2022-11-30T03:03:26;121.00;;;59.13;;
48703;SDS011;34502;51.296;16.918;2022-11-30T03:05:52;118.88;;;57.97;;
48703;SDS011;34502;51.296;16.918;2022-11-30T03:08:18;118.40;;;57.88;;
48703;SDS011;34502;51.296;16.918;2022-11-30T03:10:44;118.60;;;56.50;;
48703;SDS011;34502;51.296;16.918;2022-11-30T03:13:11;114.90;;;54.22;;
48703;SDS011;34502;51.296;16.918;2022-11-30T03:15:37;115.13;;;52.13;;
48703;SDS011;34502;51.296;16.918;2022-11-30T03:18:03;109.25;;;53.47;;
48703;SDS011;34502;51.296;16.918;2022-11-30T03:20:29;109.50;;;54.53;;
48703;SDS011;34502;51.296;16.918;2022-11-30T03:22:59;111.35;;;53.45;;
48703;SDS011;34502;51.296;16.918;2022-11-30T03:25:26;111.40;;;54.22;;
48703;SDS011;34502;51.296;16.918;2022-11-30T03:27:52;117.60;;;52.55;;
48703;SDS011;34502;51.296;16.918;2022-11-30T03:30:19;111.15;;;52.40;;
48703;SDS011;34502;51.296;16.918;2022-11-30T03:32:45;126.00;;;55.30;;
48703;SDS011;34502;51.296;16.918;2022-11-30T03:35:11;114.05;;;55.55;;
48703;SDS011;34502;51.296;16.918;2022-11-30T03:37:37;119.50;;;57.55;;
48703;SDS011;34502;51.296;16.918;2022-11-30T03:40:03;116.68;;;54.53;;
48703;SDS011;34502;51.296;16.918;2022-11-30T03:42:30;117.22;;;58.45;;
48703;SDS011;34502;51.296;16.918;2022-11-30T03:44:56;124.68;;;59.95;;
48703;SDS011;34502;51.296;16.918;2022-11-30T03:47:22;110.25;;;52.97;;
48703;SDS011;34502;51.296;16.918;2022-11-30T03:49:48;121.13;;;57.00;;
48703;SDS011;34502;51.296;16.918;2022-11-30T03:52:14;115.20;;;55.92;;
48703;SDS011;34502;51.296;16.918;2022-11-30T03:54:40;114.07;;;56.15;;
48703;SDS011;34502;51.296;16.918;2022-11-30T03:57:06;121.57;;;57.67;;
48703;SDS011;34502;51.296;16.918;2022-11-30T03:59:32;108.05;;;54.80;;
48703;SDS011;34502;51.296;16.918;2022-11-30T04:01:58;108.93;;;53.58;;
48703;SDS011;34502;51.296;16.918;2022-11-30T04:04:24;108.95;;;52.13;;
48703;SDS011;34502;51.296;16.918;2022-11-30T04:06:50;114.70;;;51.28;;
48703;SDS011;34502;51.296;16.918;2022-11-30T04:09:17;105.75;;;52.45;;
48703;SDS011;34502;51.296;16.918;2022-11-30T04:11:43;110.50;;;56.15;;
48703;SDS011;34502;51.296;16.918;2022-11-30T04:14:09;112.13;;;55.55;;
48703;SDS011;34502;51.296;16.918;2022-11-30T04:16:35;100.10;;;51.20;;
48703;SDS011;34502;51.296;16.918;2022-11-30T04:19:01;119.65;;;56.58;;
48703;SDS011;34502;51.296;16.918;2022-11-30T04:21:27;115.28;;;56.33;;
48703;SDS011;34502;51.296;16.918;2022-11-30T04:23:54;106.10;;;53.20;;
48703;SDS011;34502;51.296;16.918;2022-11-30T04:26:20;109.68;;;51.97;;
48703;SDS011;34502;51.296;16.918;2022-11-30T04:28:46;115.22;;;52.60;;
48703;SDS011;34502;51.296;16.918;2022-11-30T04:31:12;103.57;;;51.08;;
48703;SDS011;34502;51.296;16.918;2022-11-30T04:33:38;103.28;;;50.78;;
48703;SDS011;34502;51.296;16.918;2022-11-30T04:36:05;111.72;;;47.47;;
48703;SDS011;34502;51.296;16.918;2022-11-30T04:38:32;99.55;;;49.30;;
48703;SDS011;34502;51.296;16.918;2022-11-30T04:41:04;95.28;;;48.45;;
48703;SDS011;34502;51.296;16.918;2022-11-30T04:43:31;121.18;;;50.85;;
48703;SDS011;34502;51.296;16.918;2022-11-30T04:45:57;120.20;;;50.33;;
48703;SDS011;34502;51.296;16.918;2022-11-30T04:48:23;113.03;;;48.53;;
48703;SDS011;34502;51.296;16.918;2022-11-30T04:50:50;114.85;;;46.42;;
48703;SDS011;34502;51.296;16.918;2022-11-30T04:53:16;110.15;;;48.85;;
48703;SDS011;34502;51.296;16.918;2022-11-30T04:55:42;124.93;;;47.90;;
48703;SDS011;34502;51.296;16.918;2022-11-30T04:58:08;120.00;;;48.40;;
48703;SDS011;34502;51.296;16.918;2022-11-30T05:00:34;127.63;;;49.80;;
48703;SDS011;34502;51.296;16.918;2022-11-30T05:03:00;96.18;;;48.30;;
48703;SDS011;34502;51.296;16.918;2022-11-30T05:05:27;101.93;;;47.65;;
48703;SDS011;34502;51.296;16.918;2022-11-30T05:07:54;103.57;;;49.30;;
48703;SDS011;34502;51.296;16.918;2022-11-30T05:10:21;108.65;;;49.67;;
48703;SDS011;34502;51.296;16.918;2022-11-30T05:12:48;105.00;;;50.60;;
48703;SDS011;34502;51.296;16.918;2022-11-30T05:15:14;109.85;;;48.08;;
48703;SDS011;34502;51.296;16.918;2022-11-30T05:17:40;112.28;;;51.83;;
48703;SDS011;34502;51.296;16.918;2022-11-30T05:20:07;106.13;;;50.15;;
48703;SDS011;34502;51.296;16.918;2022-11-30T05:22:33;110.93;;;48.90;;
48703;SDS011;34502;51.296;16.918;2022-11-30T05:24:59;105.25;;;46.97;;
48703;SDS011;34502;51.296;16.918;2022-11-30T05:27:25;112.13;;;50.58;;
48703;SDS011;34502;51.296;16.918;2022-11-30T05:29:51;128.32;;;50.83;;
48703;SDS011;34502;51.296;16.918;2022-11-30T05:32:18;105.40;;;48.20;;
48703;SDS011;34502;51.296;16.918;2022-11-30T05:34:44;100.43;;;48.78;;
48703;SDS011;34502;51.296;16.918;2022-11-30T05:37:10;126.13;;;51.85;;
48703;SDS011;34502;51.296;16.918;2022-11-30T05:39:36;109.10;;;49.10;;
48703;SDS011;34502;51.296;16.918;2022-11-30T05:42:02;112.13;;;52.05;;
48703;SDS011;34502;51.296;16.918;2022-11-30T05:44:28;99.72;;;47.83;;
48703;SDS011;34502;51.296;16.918;2022-11-30T05:46:54;124.75;;;50.90;;
48703;SDS011;34502;51.296;16.918;2022-11-30T05:49:20;111.25;;;49.13;;
48703;SDS011;34502;51.296;16.918;2022-11-30T05:51:46;119.30;;;50.67;;
48703;SDS011;34502;51.296;16.918;2022-11-30T05:54:12;108.85;;;51.83;;
48703;SDS011;34502;51.296;16.918;2022-11-30T05:56:38;114.50;;;52.55;;
48703;SDS011;34502;51.296;16.918;2022-11-30T05:59:05;111.22;;;51.70;;
48703;SDS011;34502;51.296;16.918;2022-11-30T06:01:31;112.60;;;49.38;;
48703;SDS011;34502;51.296;16.918;2022-11-30T06:03:57;176.70;;;54.53;;
48703;SDS011;34502;51.296;16.918;2022-11-30T06:06:23;113.32;;;52.53;;
48703;SDS011;34502;51.296;16.918;2022-11-30T06:08:49;115.38;;;53.17;;
48703;SDS011;34502;51.296;16.918;2022-11-30T06:11:15;111.80;;;52.50;;
48703;SDS011;34502;51.296;16.918;2022-11-30T06:13:42;125.10;;;52.75;;
48703;SDS011;34502;51.296;16.918;2022-11-30T06:16:08;102.63;;;48.55;;
48703;SDS011;34502;51.296;16.918;2022-11-30T06:18:35;166.85;;;49.97;;
48703;SDS011;34502;51.296;16.918;2022-11-30T06:21:02;116.70;;;51.20;;
48703;SDS011;34502;51.296;16.918;2022-11-30T06:23:30;167.15;;;51.70;;
48703;SDS011;34502;51.296;16.918;2022-11-30T06:25:57;107.57;;;48.72;;
48703;SDS011;34502;51.296;16.918;2022-11-30T06:28:26;118.65;;;47.60;;
48703;SDS011;34502;51.296;16.918;2022-11-30T06:30:52;115.13;;;49.72;;
48703;SDS011;34502;51.296;16.918;2022-11-30T06:33:23;107.80;;;50.50;;
48703;SDS011;34502;51.296;16.918;2022-11-30T06:35:49;104.15;;;47.45;;
48703;SDS011;34502;51.296;16.918;2022-11-30T06:38:16;113.32;;;50.15;;
48703;SDS011;34502;51.296;16.918;2022-11-30T06:40:42;111.10;;;50.88;;
48703;SDS011;34502;51.296;16.918;2022-11-30T06:43:08;123.47;;;48.83;;
48703;SDS011;34502;51.296;16.918;2022-11-30T06:45:34;101.50;;;47.45;;
48703;SDS011;34502;51.296;16.918;2022-11-30T06:48:01;113.75;;;49.95;;
48703;SDS011;34502;51.296;16.918;2022-11-30T06:50:27;106.50;;;46.00;;
48703;SDS011;34502;51.296;16.918;2022-11-30T06:52:54;114.88;;;47.67;;
48703;SDS011;34502;51.296;16.918;2022-11-30T06:55:20;103.85;;;44.85;;
48703;SDS011;34502;51.296;16.918;2022-11-30T06:57:47;105.85;;;47.00;;
48703;SDS011;34502;51.296;16.918;2022-11-30T07:00:14;117.63;;;48.47;;
48703;SDS011;34502;51.296;16.918;2022-11-30T07:02:40;107.82;;;47.92;;
48703;SDS011;34502;51.296;16.918;2022-11-30T07:05:06;138.00;;;51.05;;
48703;SDS011;34502;51.296;16.918;2022-11-30T07:07:33;109.70;;;48.60;;
48703;SDS011;34502;51.296;16.918;2022-11-30T07:09:59;107.55;;;48.65;;
48703;SDS011;34502;51.296;16.918;2022-11-30T07:12:25;109.07;;;48.90;;
48703;SDS011;34502;51.296;16.918;2022-11-30T07:14:51;113.90;;;47.22;;
48703;SDS011;34502;51.296;16.918;2022-11-30T07:17:21;108.53;;;48.38;;
48703;SDS011;34502;51.296;16.918;2022-11-30T07:19:47;110.68;;;48.70;;
48703;SDS011;34502;51.296;16.918;2022-11-30T07:22:13;107.72;;;47.80;;
48703;SDS011;34502;51.296;16.918;2022-11-30T07:24:39;102.38;;;45.05;;
48703;SDS011;34502;51.296;16.918;2022-11-30T07:27:24;104.30;;;45.50;;
48703;SDS011;34502;51.296;16.918;2022-11-30T07:29:50;106.50;;;44.60;;
48703;SDS011;34502;51.296;16.918;2022-11-30T07:32:17;102.85;;;45.22;;
48703;SDS011;34502;51.296;16.918;2022-11-30T07:34:43;102.90;;;45.13;;
48703;SDS011;34502;51.296;16.918;2022-11-30T07:37:09;121.90;;;43.17;;
48703;SDS011;34502;51.296;16.918;2022-11-30T07:39:35;102.38;;;44.55;;
48703;SDS011;34502;51.296;16.918;2022-11-30T07:42:02;106.47;;;46.13;;
48703;SDS011;34502;51.296;16.918;2022-11-30T07:44:28;102.95;;;46.38;;
48703;SDS011;34502;51.296;16.918;2022-11-30T07:46:54;101.38;;;45.92;;
48703;SDS011;34502;51.296;16.918;2022-11-30T07:49:20;120.15;;;45.67;;
48703;SDS011;34502;51.296;16.918;2022-11-30T07:51:46;115.05;;;47.33;;
48703;SDS011;34502;51.296;16.918;2022-11-30T07:54:12;101.65;;;45.53;;
48703;SDS011;34502;51.296;16.918;2022-11-30T07:56:38;118.63;;;45.80;;
48703;SDS011;34502;51.296;16.918;2022-11-30T07:59:04;115.22;;;46.20;;
48703;SDS011;34502;51.296;16.918;2022-11-30T08:01:31;99.90;;;42.42;;
48703;SDS011;34502;51.296;16.918;2022-11-30T08:03:58;114.57;;;45.45;;
48703;SDS011;34502;51.296;16.918;2022-11-30T08:06:25;97.03;;;42.17;;
48703;SDS011;34502;51.296;16.918;2022-11-30T08:08:53;105.38;;;47.50;;
48703;SDS011;34502;51.296;16.918;2022-11-30T08:11:27;120.15;;;47.42;;
48703;SDS011;34502;51.296;16.918;2022-11-30T08:13:54;105.13;;;46.28;;
48703;SDS011;34502;51.296;16.918;2022-11-30T08:16:22;110.15;;;47.42;;
48703;SDS011;34502;51.296;16.918;2022-11-30T08:18:49;107.70;;;44.17;;
48703;SDS011;34502;51.296;16.918;2022-11-30T08:21:16;109.88;;;46.50;;
48703;SDS011;34502;51.296;16.918;2022-11-30T08:23:50;108.93;;;45.72;;
48703;SDS011;34502;51.296;16.918;2022-11-30T08:26:23;110.25;;;46.30;;
48703;SDS011;34502;51.296;16.918;2022-11-30T08:28:50;109.78;;;46.13;;
48703;SDS011;34502;51.296;16.918;2022-11-30T08:31:36;97.85;;;43.97;;
48703;SDS011;34502;51.296;16.918;2022-11-30T08:34:07;98.03;;;42.90;;
48703;SDS011;34502;51.296;16.918;2022-11-30T08:36:36;105.13;;;44.28;;
48703;SDS011;34502;51.296;16.918;2022-11-30T08:39:03;110.45;;;43.28;;
48703;SDS011;34502;51.296;16.918;2022-11-30T08:41:30;100.53;;;45.55;;
48703;SDS011;34502;51.296;16.918;2022-11-30T08:43:57;122.65;;;43.78;;
48703;SDS011;34502;51.296;16.918;2022-11-30T08:46:23;100.25;;;42.78;;
48703;SDS011;34502;51.296;16.918;2022-11-30T08:48:50;90.28;;;42.50;;
48703;SDS011;34502;51.296;16.918;2022-11-30T08:51:17;95.97;;;42.60;;
48703;SDS011;34502;51.296;16.918;2022-11-30T08:53:44;100.72;;;42.83;;
48703;SDS011;34502;51.296;16.918;2022-11-30T08:56:12;94.20;;;42.88;;
48703;SDS011;34502;51.296;16.918;2022-11-30T08:58:40;87.47;;;40.65;;
48703;SDS011;34502;51.296;16.918;2022-11-30T09:03:39;87.28;;;40.90;;
48703;SDS011;34502;51.296;16.918;2022-11-30T09:06:16;94.93;;;42.53;;
48703;SDS011;34502;51.296;16.918;2022-11-30T09:08:44;90.03;;;41.60;;
48703;SDS011;34502;51.296;16.918;2022-11-30T09:11:16;90.68;;;40.83;;
48703;SDS011;34502;51.296;16.918;2022-11-30T09:13:45;85.55;;;40.38;;
48703;SDS011;34502;51.296;16.918;2022-11-30T09:16:13;97.40;;;41.15;;
48703;SDS011;34502;51.296;16.918;2022-11-30T09:18:40;91.18;;;41.72;;
48703;SDS011;34502;51.296;16.918;2022-11-30T09:21:08;91.10;;;43.17;;
48703;SDS011;34502;51.296;16.918;2022-11-30T09:23:36;104.07;;;43.92;;
48703;SDS011;34502;51.296;16.918;2022-11-30T09:26:03;92.95;;;44.67;;
48703;SDS011;34502;51.296;16.918;2022-11-30T09:28:31;92.50;;;40.22;;
48703;SDS011;34502;51.296;16.918;2022-11-30T09:31:01;93.70;;;43.17;;
48703;SDS011;34502;51.296;16.918;2022-11-30T09:33:46;93.45;;;42.35;;
48703;SDS011;34502;51.296;16.918;2022-11-30T09:36:15;95.90;;;42.95;;
48703;SDS011;34502;51.296;16.918;2022-11-30T09:38:42;90.90;;;41.78;;
48703;SDS011;34502;51.296;16.918;2022-11-30T09:43:50;94.82;;;43.95;;
48703;SDS011;34502;51.296;16.918;2022-11-30T09:49:30;99.97;;;45.25;;
48703;SDS011;34502;51.296;16.918;2022-11-30T09:52:00;95.35;;;44.17;;
48703;SDS011;34502;51.296;16.918;2022-11-30T09:54:38;94.05;;;42.22;;
48703;SDS011;34502;51.296;16.918;2022-11-30T09:57:25;90.85;;;42.97;;
48703;SDS011;34502;51.296;16.918;2022-11-30T09:59:59;95.95;;;43.88;;
48703;SDS011;34502;51.296;16.918;2022-11-30T10:02:33;86.55;;;40.58;;
48703;SDS011;34502;51.296;16.918;2022-11-30T10:05:11;90.35;;;40.47;;
48703;SDS011;34502;51.296;16.918;2022-11-30T10:15:47;84.43;;;39.15;;
48703;SDS011;34502;51.296;16.918;2022-11-30T10:18:38;118.60;;;38.97;;
48703;SDS011;34502;51.296;16.918;2022-11-30T10:29:16;88.82;;;39.47;;
48703;SDS011;34502;51.296;16.918;2022-11-30T10:31:44;94.60;;;44.60;;
48703;SDS011;34502;51.296;16.918;2022-11-30T10:34:19;86.00;;;39.45;;
48703;SDS011;34502;51.296;16.918;2022-11-30T10:37:00;91.03;;;40.88;;
48703;SDS011;34502;51.296;16.918;2022-11-30T10:39:38;81.13;;;38.72;;
48703;SDS011;34502;51.296;16.918;2022-11-30T10:42:18;89.85;;;40.42;;
48703;SDS011;34502;51.296;16.918;2022-11-30T10:45:31;99.38;;;40.85;;
48703;SDS011;34502;51.296;16.918;2022-11-30T10:47:38;100.00;;;43.75;;
48703;SDS011;34502;51.296;16.918;2022-11-30T10:50:09;88.37;;;41.43;;
48703;SDS011;34502;51.296;16.918;2022-11-30T10:52:50;86.75;;;44.75;;
48703;SDS011;34502;51.296;16.918;2022-11-30T10:55:18;89.47;;;45.38;;
48703;SDS011;34502;51.296;16.918;2022-11-30T10:57:48;80.75;;;40.25;;
48703;SDS011;34502;51.296;16.918;2022-11-30T11:00:18;90.03;;;40.03;;
48703;SDS011;34502;51.296;16.918;2022-11-30T11:02:45;91.05;;;38.80;;
48703;SDS011;34502;51.296;16.918;2022-11-30T11:07:56;89.78;;;41.63;;
48703;SDS011;34502;51.296;16.918;2022-11-30T11:10:34;89.88;;;42.08;;
48703;SDS011;34502;51.296;16.918;2022-11-30T11:13:18;91.72;;;41.17;;
48703;SDS011;34502;51.296;16.918;2022-11-30T11:16:08;86.28;;;40.00;;
48703;SDS011;34502;51.296;16.918;2022-11-30T11:18:37;89.22;;;42.08;;
48703;SDS011;34502;51.296;16.918;2022-11-30T11:21:20;102.47;;;40.50;;
48703;SDS011;34502;51.296;16.918;2022-11-30T11:23:50;81.93;;;38.35;;
48703;SDS011;34502;51.296;16.918;2022-11-30T11:28:50;90.82;;;40.38;;
48703;SDS011;34502;51.296;16.918;2022-11-30T11:34:03;85.30;;;39.30;;
48703;SDS011;34502;51.296;16.918;2022-11-30T11:36:33;95.88;;;42.08;;
48703;SDS011;34502;51.296;16.918;2022-11-30T11:39:00;109.80;;;44.78;;
48703;SDS011;34502;51.296;16.918;2022-11-30T11:41:31;91.03;;;41.65;;
48703;SDS011;34502;51.296;16.918;2022-11-30T11:46:35;102.80;;;46.08;;
48703;SDS011;34502;51.296;16.918;2022-11-30T11:49:23;87.75;;;38.88;;
48703;SDS011;34502;51.296;16.918;2022-11-30T11:51:58;85.28;;;41.22;;
48703;SDS011;34502;51.296;16.918;2022-11-30T11:54:32;89.50;;;41.40;;
48703;SDS011;34502;51.296;16.918;2022-11-30T11:57:02;83.85;;;40.83;;
48703;SDS011;34502;51.296;16.918;2022-11-30T12:05:04;100.57;;;40.47;;
48703;SDS011;34502;51.296;16.918;2022-11-30T12:10:40;82.93;;;39.25;;
48703;SDS011;34502;51.296;16.918;2022-11-30T12:13:22;80.53;;;38.15;;
48703;SDS011;34502;51.296;16.918;2022-11-30T12:18:21;78.00;;;36.08;;
48703;SDS011;34502;51.296;16.918;2022-11-30T12:26:43;83.10;;;38.20;;
48703;SDS011;34502;51.296;16.918;2022-11-30T12:29:22;76.72;;;37.42;;
48703;SDS011;34502;51.296;16.918;2022-11-30T12:37:39;90.45;;;43.33;;
48703;SDS011;34502;51.296;16.918;2022-11-30T12:43:02;102.47;;;49.88;;
48703;SDS011;34502;51.296;16.918;2022-11-30T12:45:43;92.57;;;45.83;;
48703;SDS011;34502;51.296;16.918;2022-11-30T12:50:51;87.25;;;43.80;;
48703;SDS011;34502;51.296;16.918;2022-11-30T13:07:21;80.72;;;41.42;;
48703;SDS011;34502;51.296;16.918;2022-11-30T13:10:15;73.00;;;38.90;;
48703;SDS011;34502;51.296;16.918;2022-11-30T13:12:51;84.07;;;40.17;;
48703;SDS011;34502;51.296;16.918;2022-11-30T13:15:26;78.13;;;42.00;;
48703;SDS011;34502;51.296;16.918;2022-11-30T13:17:54;78.03;;;39.95;;
48703;SDS011;34502;51.296;16.918;2022-11-30T13:28:31;77.97;;;40.65;;
48703;SDS011;34502;51.296;16.918;2022-11-30T13:36:28;79.63;;;40.72;;
48703;SDS011;34502;51.296;16.918;2022-11-30T13:41:34;79.15;;;41.35;;
48703;SDS011;34502;51.296;16.918;2022-11-30T13:44:01;80.65;;;42.75;;
48703;SDS011;34502;51.296;16.918;2022-11-30T13:46:27;80.88;;;44.28;;
48703;SDS011;34502;51.296;16.918;2022-11-30T13:51:55;85.55;;;43.95;;
48703;SDS011;34502;51.296;16.918;2022-11-30T13:59:55;80.20;;;41.15;;
48703;SDS011;34502;51.296;16.918;2022-11-30T14:07:43;75.75;;;41.03;;
48703;SDS011;34502;51.296;16.918;2022-11-30T14:26:22;88.72;;;45.28;;
48703;SDS011;34502;51.296;16.918;2022-11-30T14:29:16;89.22;;;46.08;;
48703;SDS011;34502;51.296;16.918;2022-11-30T14:31:55;77.68;;;41.85;;
48703;SDS011;34502;51.296;16.918;2022-11-30T14:34:29;83.45;;;43.30;;
48703;SDS011;34502;51.296;16.918;2022-11-30T14:37:22;87.88;;;45.65;;
48703;SDS011;34502;51.296;16.918;2022-11-30T14:40:07;82.80;;;44.10;;
48703;SDS011;34502;51.296;16.918;2022-11-30T14:42:44;128.45;;;63.92;;
48703;SDS011;34502;51.296;16.918;2022-11-30T14:45:19;130.95;;;65.15;;
48703;SDS011;34502;51.296;16.918;2022-11-30T14:48:08;194.75;;;93.78;;
48703;SDS011;34502;51.296;16.918;2022-11-30T14:50:41;144.48;;;77.88;;
48703;SDS011;34502;51.296;16.918;2022-11-30T14:53:13;131.60;;;70.05;;
48703;SDS011;34502;51.296;16.918;2022-11-30T14:59:03;78.78;;;43.42;;
48703;SDS011;34502;51.296;16.918;2022-11-30T15:01:40;78.13;;;44.15;;
48703;SDS011;34502;51.296;16.918;2022-11-30T15:04:11;73.18;;;40.97;;
48703;SDS011;34502;51.296;16.918;2022-11-30T15:06:40;77.43;;;42.55;;
48703;SDS011;34502;51.296;16.918;2022-11-30T15:09:16;104.20;;;56.80;;
48703;SDS011;34502;51.296;16.918;2022-11-30T15:11:45;91.72;;;50.33;;
48703;SDS011;34502;51.296;16.918;2022-11-30T15:14:12;90.35;;;50.95;;
48703;SDS011;34502;51.296;16.918;2022-11-30T15:16:46;90.25;;;50.35;;
48703;SDS011;34502;51.296;16.918;2022-11-30T15:19:24;97.10;;;51.63;;
48703;SDS011;34502;51.296;16.918;2022-11-30T15:21:52;103.55;;;57.25;;
48703;SDS011;34502;51.296;16.918;2022-11-30T15:24:19;96.57;;;55.53;;
48703;SDS011;34502;51.296;16.918;2022-11-30T15:31:57;175.63;;;95.57;;
48703;SDS011;34502;51.296;16.918;2022-11-30T15:36:57;156.15;;;84.50;;
48703;SDS011;34502;51.296;16.918;2022-11-30T15:39:24;126.00;;;65.80;;
48703;SDS011;34502;51.296;16.918;2022-11-30T15:41:58;129.93;;;69.93;;
48703;SDS011;34502;51.296;16.918;2022-11-30T15:47:05;120.95;;;68.53;;
48703;SDS011;34502;51.296;16.918;2022-11-30T15:52:17;98.20;;;55.60;;
48703;SDS011;34502;51.296;16.918;2022-11-30T15:54:50;98.38;;;54.80;;
48703;SDS011;34502;51.296;16.918;2022-11-30T15:57:17;90.85;;;51.72;;
48703;SDS011;34502;51.296;16.918;2022-11-30T16:00:00;91.00;;;50.45;;
48703;SDS011;34502;51.296;16.918;2022-11-30T16:02:40;93.90;;;53.63;;
48703;SDS011;34502;51.296;16.918;2022-11-30T16:07:55;96.20;;;51.08;;
48703;SDS011;34502;51.296;16.918;2022-11-30T16:10:36;87.30;;;48.70;;
48703;SDS011;34502;51.296;16.918;2022-11-30T16:13:03;88.20;;;51.50;;
48703;SDS011;34502;51.296;16.918;2022-11-30T16:15:33;115.07;;;66.32;;
48703;SDS011;34502;51.296;16.918;2022-11-30T16:18:16;134.80;;;81.22;;
48703;SDS011;34502;51.296;16.918;2022-11-30T16:20:51;134.02;;;75.72;;
48703;SDS011;34502;51.296;16.918;2022-11-30T16:23:19;129.32;;;77.20;;
48703;SDS011;34502;51.296;16.918;2022-11-30T16:25:46;111.90;;;70.07;;
48703;SDS011;34502;51.296;16.918;2022-11-30T16:28:14;95.20;;;58.28;;
48703;SDS011;34502;51.296;16.918;2022-11-30T16:30:41;107.30;;;62.47;;
48703;SDS011;34502;51.296;16.918;2022-11-30T16:33:17;125.38;;;65.50;;
48703;SDS011;34502;51.296;16.918;2022-11-30T16:38:17;123.97;;;60.33;;
48703;SDS011;34502;51.296;16.918;2022-11-30T16:40:44;114.97;;;56.53;;
48703;SDS011;34502;51.296;16.918;2022-11-30T16:43:10;108.22;;;53.97;;
48703;SDS011;34502;51.296;16.918;2022-11-30T16:45:40;111.43;;;55.25;;
48703;SDS011;34502;51.296;16.918;2022-11-30T16:48:08;133.85;;;60.20;;
48703;SDS011;34502;51.296;16.918;2022-11-30T16:50:34;178.85;;;82.70;;
48703;SDS011;34502;51.296;16.918;2022-11-30T16:53:01;183.80;;;82.07;;
48703;SDS011;34502;51.296;16.918;2022-11-30T16:55:29;173.52;;;81.15;;
48703;SDS011;34502;51.296;16.918;2022-11-30T16:57:58;124.38;;;59.83;;